x

Ne Puerto Rico - 170 Nm Nne Of San Juan, P R (41043) Wave Buoy

11:50pm - Fri 17th Apr 2015 All times are AST. -4 hours from GMT.

  • Sig Wave height 3.9ft
  • Swell Direction
  • Peak Period 9s
  • Average Period 6s
  • Wind
    11mph, 16mph gusts
  • Sea Temp 80°f
  • Air Temp 78°f
  • Sea Pressure 1019.6mb
  • Ne Puerto Rico  - 170 Nm Nne Of San Juan,  P R
  • Ne Puerto Rico  - 170 Nm Nne Of San Juan,  P R

More Historic Weather Station data

Upgrade to MSW Pro to gain access to the past 30 days of data for over 8000 Wavebouys and Weather Stations around the globe.

Join Pro

Comparision Forecast

View Surf forecast
   
Fri 04/17 11:50pm 4ft 9s 6s 11 16 mph 1019.6mb 80f 78f
10:50pm 4ft 8s 6s 11 13 mph 1019.9mb 80f 78f
9:50pm 4ft 9s 6s 11 16 mph 1019.5mb 80f 78f
8:50pm 4ft 9s 6s 13 16 mph 1018.9mb 80f 78f
7:50pm 4ft 9s 6s 13 16 mph 1018.3mb 80f 78f
6:50pm 4ft 9s 6s 11 16 mph 1018mb 80f 78f
5:50pm 4.5ft 8s 6s 11 13 mph 1017.8mb 80f 78f
4:50pm 4.5ft 8s 6s 11 13 mph 1017.6mb 80f 78f
3:50pm 4.5ft 8s 6s 11 13 mph 1017.9mb 80f 78f
2:50pm 4.5ft 9s 6s 11 16 mph 1018.2mb 80f 78f
1:50pm 4.5ft 8s 6s 11 16 mph 1019mb 80f 78f
12:50pm 4.5ft 9s 6s 13 16 mph 1019.6mb 80f 78f
11:50am 4.5ft 9s 6s 13 18 mph 1020.2mb 80f 78f
10:50am 5ft 9s 6s 13 18 mph 1020.6mb 80f 78f
9:50am 5ft 9s 6s 16 18 mph 1020.5mb 80f 78f
8:50am 4.5ft 9s 6s 16 18 mph 1020.1mb 80f 78f
7:50am 5ft 9s 6s 16 18 mph 1019.4mb 79f 78f
6:50am 4.5ft 9s 6s 16 22 mph 1018.7mb 79f 78f
5:50am 5ft 9s 6s 16 20 mph 1018.3mb 79f 77f
4:50am 5ft 9s 5s 16 20 mph 1018mb 79f 77f
3:50am 5ft 8s 5s 18 20 mph 1018mb 79f 77f
2:50am 5ft 9s 6s 18 22 mph 1018.1mb 80f 77f
1:50am 5ft 9s 6s 16 20 mph 1018.7mb 80f 78f
12:50am 4.5ft 9s 6s 16 20 mph 1019.4mb 80f 78f
Thu 04/16 11:50pm 5ft 9s 6s 18 20 mph 1020mb 80f 78f
10:50pm 4.5ft 8s 6s 16 20 mph 1020.1mb 80f 78f
9:50pm 5ft 9s 6s 16 20 mph 1020mb 80f 78f
8:50pm 4.5ft 9s 6s 16 18 mph 1019.5mb 80f 78f
7:50pm 4.5ft 9s 6s 13 16 mph 1018.9mb 80f 78f
6:50pm 5ft 9s 6s 11 16 mph 1018.5mb 80f 78f
5:50pm 5ft 9s 6s 13 16 mph 1018mb 80f 78f
4:50pm 4.5ft 8s 6s 13 18 mph 1018mb 80f 79f
3:50pm 5ft 8s 6s 13 16 mph 1018.1mb 80f 78f
2:50pm 4.5ft 8s 6s 13 16 mph 1018.4mb 80f 78f
1:50pm 5ft 8s 6s 11 13 mph 1019.1mb 80f 78f
12:50pm 5ft 9s 6s 13 16 mph 1019.6mb 80f 78f
11:50am 4.5ft 8s 6s 13 16 mph 1020.2mb 80f 78f
10:50am 4.5ft 9s 6s 13 16 mph 1020.7mb 80f 78f
9:50am 4.5ft 8s 6s 11 16 mph 1020.9mb 80f 78f
8:50am 4.5ft 9s 6s 13 16 mph 1020.5mb 80f 78f
7:50am 4.5ft 9s 6s 13 18 mph 1020mb 80f 78f
6:50am 4.5ft 9s 6s 13 16 mph 1019.6mb 79f 78f
5:50am 4ft 8s 5s 13 18 mph 1019.1mb 79f 77f
4:50am 4.5ft 8s 6s 16 18 mph 1018.4mb 79f 78f
3:50am 4.5ft 8s 6s 13 16 mph 1018.2mb 79f 77f
2:50am 4.5ft 9s 6s 13 18 mph 1018.1mb 79f 78f
1:50am 4.5ft 9s 6s 13 18 mph 1018.6mb 80f 78f
12:50am 4.5ft 8s 6s 13 18 mph 1019.5mb 80f 78f
Wed 04/15 11:50pm 4.5ft 8s 6s 13 16 mph 1020.3mb 80f 78f
10:50pm 4.5ft 8s 6s 13 16 mph 1020.7mb 80f 78f
9:50pm 4.5ft 8s 6s 13 16 mph 1020.7mb 80f 78f
8:50pm 4.5ft 9s 6s 13 16 mph 1020.3mb 80f 78f
7:50pm 4.5ft 9s 6s 13 16 mph 1019.6mb 80f 78f
6:50pm 4.5ft 8s 6s 11 13 mph 1018.9mb 80f 78f
5:50pm 4.5ft 8s 6s 13 16 mph 1018.3mb 80f 79f
4:50pm 4ft 9s 6s 13 16 mph 1018.2mb 80f 79f
3:50pm 4.5ft 8s 6s 13 16 mph 1018.2mb 80f 79f
2:50pm 4.5ft 8s 6s 13 16 mph 1018.6mb 80f 78f
1:50pm 4.5ft 9s 6s 13 16 mph 1019.4mb 80f 78f
12:50pm 4.5ft 8s 6s 13 16 mph 1020.2mb 80f 78f
11:50am 4.5ft 8s 6s 11 16 mph 1020.7mb 80f 79f
10:50am 5ft 8s 6s 11 16 mph 1021mb 80f 78f
9:50am 5ft 9s 6s 13 16 mph 1020.8mb 80f 78f
8:50am 5ft 9s 6s 13 18 mph 1020.5mb 80f 78f
7:50am 5ft 8s 6s 13 18 mph 1020mb 80f 78f
6:50am 5ft 8s 6s 13 16 mph 1019.5mb 79f 78f
5:50am 5ft 9s 6s 13 16 mph 1018.9mb 80f 77f
4:50am 4.5ft 8s 6s 13 16 mph 1018.3mb 80f 78f
3:50am 5ft 9s 6s 13 18 mph 1017.9mb 80f 77f
2:50am 4.5ft 8s 6s 13 18 mph 1018mb 80f 77f
1:50am 4.5ft 8s 6s 16 18 mph 1018.6mb 80f 77f
12:50am 4.5ft 8s 6s 13 16 mph 1019.5mb 80f 78f
Tue 04/14 11:50pm 4.5ft 8s 5s 16 20 mph 1020.1mb 80f 78f
10:50pm 4.5ft 8s 5s 13 16 mph 1020.6mb 80f 78f
9:50pm 4.5ft 8s 6s 16 18 mph 1020.7mb 80f 78f
8:50pm 4.5ft 8s 6s 13 16 mph 1020.6mb 80f 77f
7:50pm 4.5ft 8s 6s 18 20 mph 1020.2mb 80f 77f
6:50pm 4.5ft 8s 6s 11 13 mph 1019.9mb 80f 78f
5:50pm 4.5ft 8s 5s 11 13 mph 1019.7mb 80f 78f
4:50pm 4.5ft 8s 5s 11 16 mph 1019.6mb 80f 79f
3:50pm 4.5ft 8s 5s 13 16 mph 1019.6mb 80f 78f
2:50pm 5ft 8s 6s 13 16 mph 1020mb 80f 78f
1:50pm 4.5ft 8s 5s 13 16 mph 1020.5mb 80f 79f
12:50pm 4.5ft 8s 5s 16
mph
1021.2mb 80f 79f
11:50am 5ft 8s 5s 16 18 mph 1021.4mb 80f 79f
10:50am 5ft 8s 5s 16 20 mph 1022mb 80f 79f
9:50am 4.5ft 8s 5s 18 20 mph 1022.1mb 80f 79f
8:50am 4.5ft 8s 5s 16 18 mph 1021.8mb 80f 79f
7:50am 5ft 8s 5s 16 18 mph 1021.6mb 79f 79f
6:50am 5ft 8s 6s 16 20 mph 1020.9mb 79f 78f
5:50am 5ft 9s 6s 16 18 mph 1020.5mb 79f 78f